Campo Florido, Brazil
Current Conditions -  °F | °C
As of 1:00 PM on Monday 24 Nov 2014 (Local Time) from SBUR Reporting Station
Rain Showers Rain Showers  
Wind Chill: 79°   Ceiling: 2000
Heat Index: 81°   Visibility: 6mi
Dew Point: 66°   Wind: 8mph
Humidity: 65%   Direction: 290°WNW
Pressure: 30.03"   Gusts: NA
Location:  19.76°S, 48.57°W
Report Text: SBUR 241500Z 29007KT 9999 VCSH BKN020 BKN080 26/19 Q1017
Loading
Personal Weather Stations






























Interactive Weather Map New forecast layout! Learn more

10-Day Weather Forecast

Advertisements
Track Severe Weather on mobile